KEKO/EKO METAR and TAF weather

Enter ICAO airport designator
Station Type Date Time Source
KEKO METAR 2019/12/11 14:56 UTC NOAA

KEKO 111456Z AUTO 00000KT 10SM SCT038 BKN050 OVC100 M03/M04 A3017 RMK AO2 SLP241 T10281044 53002


Station Type Date Time Source
KEKO Decoded METAR 2019/12/11 14:56 UTC NOAA

ELKO REGIONAL AIRPORT, NV, United States (KEKO) 40-50N 115-47W 1547M
Dec 11, 2019 - 09:56 AM EST / 2019.12.11 1456 UTC
Wind: Calm:0
Visibility: 10 mile(s):0
Sky conditions: overcast
Temperature: 27.0 F (-2.8 C)
Dew Point: 24.1 F (-4.4 C)
Relative Humidity: 88%
Pressure (altimeter): 30.17 in. Hg (1021 hPa)
Pressure tendency: 0.01 inches (0.2 hPa) higher than three hours ago
ob: KEKO 111456Z AUTO 00000KT 10SM SCT038 BKN050 OVC100 M03/M04 A3017 RMK AO2 SLP241 T10281044 53002
cycle: 15

Station Type Date Time Source
KEKO TAF 2019/12/11 12:39 UTC NOAA

TAF KEKO 111137Z 1112/1212 VRB03KT P6SM BKN100
FM111500 VRB05KT P6SM VCSH SCT035 OVC060
FM112100 23006KT P6SM SCT030 BKN120
FM120700 22003KT P6SM -SHSNRA BKN025 OVC035

Example: see airport list